createdAt,value
2023-05-15T00:00:23.166Z,1.60
2023-05-15T00:05:01.337Z,1.30
2023-05-15T00:09:19.082Z,0.95
2023-05-15T00:13:38.663Z,1.27
2023-05-15T00:17:56.406Z,1.33
2023-05-15T00:22:13.932Z,1.20
2023-05-15T00:26:33.119Z,1.35
2023-05-15T00:30:52.079Z,1.17
2023-05-15T00:35:09.897Z,1.23
2023-05-15T00:39:27.505Z,1.02
2023-05-15T00:43:45.401Z,1.30
2023-05-15T00:48:03.810Z,0.55
2023-05-15T00:52:22.385Z,1.15
2023-05-15T00:56:40.493Z,1.02
2023-05-15T01:00:58.309Z,1.38
2023-05-15T01:05:15.984Z,1.05
2023-05-15T01:09:36.691Z,1.00
2023-05-15T01:13:55.410Z,1.40
2023-05-15T01:18:13.147Z,1.35
2023-05-15T01:22:47.183Z,1.50
2023-05-15T01:27:24.945Z,1.20
2023-05-15T01:31:48.743Z,1.23
2023-05-15T01:36:18.457Z,1.15
2023-05-15T01:40:36.480Z,1.15
2023-05-15T01:49:16.369Z,1.00
2023-05-15T01:53:35.457Z,1.30
2023-05-15T01:57:53.834Z,1.08
2023-05-15T02:02:12.156Z,1.00
2023-05-15T02:06:30.896Z,1.23
2023-05-15T02:10:49.688Z,0.95
2023-05-15T02:15:10.819Z,1.13
2023-05-15T02:19:28.444Z,1.00
2023-05-15T02:23:46.806Z,1.10
2023-05-15T02:28:07.946Z,0.85
2023-05-15T02:33:05.180Z,0.98
2023-05-15T02:37:30.481Z,1.00
2023-05-15T02:41:48.706Z,1.20
2023-05-15T02:46:07.825Z,0.90
2023-05-15T02:50:25.792Z,0.90
2023-05-15T02:54:43.670Z,0.70
2023-05-15T02:59:02.739Z,0.95
2023-05-15T03:03:20.245Z,1.20
2023-05-15T03:07:37.936Z,0.83
2023-05-15T03:16:13.084Z,1.10
2023-05-15T03:20:30.594Z,1.15
2023-05-15T03:24:49.226Z,1.00
2023-05-15T03:29:06.734Z,1.20
2023-05-15T03:33:24.594Z,1.30
2023-05-15T03:37:42.476Z,0.68
2023-05-15T03:42:00.117Z,0.85
2023-05-15T03:46:17.673Z,0.75
2023-05-15T03:50:35.287Z,0.80
2023-05-15T03:54:52.948Z,0.80
2023-05-15T03:59:10.634Z,0.80
2023-05-15T04:03:28.156Z,0.85
2023-05-15T04:07:46.192Z,0.77
2023-05-15T04:12:03.918Z,0.80
2023-05-15T04:16:21.753Z,0.80
2023-05-15T04:20:39.329Z,0.73
2023-05-15T04:24:57.193Z,0.93
2023-05-15T04:29:14.690Z,0.65
2023-05-15T04:33:32.668Z,0.82
2023-05-15T04:37:50.161Z,0.90
2023-05-15T04:42:08.098Z,0.68
2023-05-15T04:46:25.674Z,0.88
2023-05-15T04:50:43.370Z,0.80
2023-05-15T04:55:00.996Z,1.00
2023-05-15T04:59:18.816Z,0.60
2023-05-15T05:03:36.461Z,0.77
2023-05-15T05:07:54.485Z,0.98
2023-05-15T05:12:12.217Z,0.70
2023-05-15T05:16:30.179Z,0.60
2023-05-15T05:20:47.955Z,0.73
2023-05-15T05:25:07.544Z,0.70
2023-05-15T05:29:25.853Z,0.63
2023-05-15T05:33:43.653Z,0.50
2023-05-15T05:38:01.290Z,0.57
2023-05-15T05:42:18.928Z,0.75
2023-05-15T05:46:36.585Z,1.00
2023-05-15T05:50:55.255Z,1.00
2023-05-15T05:55:12.886Z,0.90
2023-05-15T05:59:30.976Z,0.75
2023-05-15T06:03:48.945Z,0.75
2023-05-15T06:16:42.523Z,0.80
2023-05-15T06:21:18.107Z,0.80
2023-05-15T06:25:36.555Z,1.05
2023-05-15T06:29:54.074Z,0.82
2023-05-15T06:34:12.523Z,0.63
2023-05-15T06:38:30.035Z,0.65
2023-05-15T06:42:47.634Z,0.88
2023-05-15T06:47:06.091Z,0.90
2023-05-15T06:51:23.917Z,0.90
2023-05-15T06:55:41.484Z,1.10
2023-05-15T06:59:59.191Z,0.85
2023-05-15T07:04:16.891Z,0.77
2023-05-15T07:08:34.737Z,1.00
2023-05-15T07:12:52.324Z,0.77
2023-05-15T07:17:10.123Z,1.10
2023-05-15T07:21:27.666Z,1.08
2023-05-15T07:25:46.086Z,0.95
2023-05-15T07:30:05.153Z,1.15
2023-05-15T07:34:23.987Z,1.45
2023-05-15T07:38:41.547Z,1.15
2023-05-15T07:42:59.165Z,1.25
2023-05-15T07:47:17.708Z,1.13
2023-05-15T07:51:36.154Z,0.75
2023-05-15T07:55:53.859Z,1.38
2023-05-15T08:00:13.134Z,1.15
2023-05-15T08:04:30.822Z,0.65
2023-05-15T08:08:48.705Z,1.02
2023-05-15T08:13:06.279Z,0.80
2023-05-15T08:17:25.555Z,1.17
2023-05-15T08:21:43.175Z,1.58
2023-05-15T08:26:01.724Z,1.17
2023-05-15T08:30:19.216Z,1.63
2023-05-15T08:34:37.346Z,2.00
2023-05-15T08:38:54.827Z,1.85
2023-05-15T08:43:16.010Z,1.60
2023-05-15T08:47:38.791Z,1.50
2023-05-15T08:51:56.892Z,1.60
2023-05-15T08:56:14.867Z,1.77
2023-05-15T09:00:33.293Z,2.08
2023-05-15T09:04:51.013Z,2.28
2023-05-15T09:09:09.843Z,2.63
2023-05-15T09:13:27.767Z,2.35
2023-05-15T09:17:46.270Z,2.42
2023-05-15T09:22:24.496Z,1.80
2023-05-15T09:26:43.245Z,1.90
2023-05-15T09:31:04.064Z,2.20
2023-05-15T09:35:37.105Z,2.00
2023-05-15T09:39:54.841Z,1.77
2023-05-15T09:44:21.897Z,1.83
2023-05-15T09:48:40.223Z,1.65
2023-05-15T09:53:00.366Z,1.20
2023-05-15T09:57:23.824Z,1.45
2023-05-15T10:01:45.267Z,0.73
2023-05-15T10:06:05.084Z,1.30
2023-05-15T10:10:23.465Z,1.02
2023-05-15T10:14:41.609Z,1.20
2023-05-15T10:23:19.076Z,1.40
2023-05-15T10:27:39.020Z,0.82
2023-05-15T10:31:57.657Z,1.50
2023-05-15T10:36:17.497Z,1.52
2023-05-15T10:40:40.394Z,1.13
2023-05-15T10:45:01.454Z,1.45
2023-05-15T10:49:19.025Z,1.40
2023-05-15T10:53:36.850Z,1.00
2023-05-15T10:57:55.154Z,1.42
2023-05-15T11:02:26.751Z,0.90
2023-05-15T11:06:50.194Z,0.70
2023-05-15T11:11:08.155Z,0.90
2023-05-15T11:20:03.805Z,0.80
2023-05-15T11:24:22.713Z,0.93
2023-05-15T11:28:47.466Z,1.17
2023-05-15T11:33:11.629Z,0.90
2023-05-15T11:37:30.017Z,0.70
2023-05-15T11:41:48.147Z,0.98
2023-05-15T11:46:10.886Z,0.95
2023-05-15T11:50:29.789Z,0.98
2023-05-15T11:54:47.984Z,1.33
2023-05-15T11:59:05.841Z,0.93
2023-05-15T12:07:50.640Z,0.90
2023-05-15T12:12:14.657Z,0.80
2023-05-15T12:16:33.233Z,0.90
2023-05-15T12:20:55.015Z,0.95
2023-05-15T12:25:15.332Z,1.00
2023-05-15T12:29:33.169Z,0.90
2023-05-15T12:38:16.773Z,1.00
2023-05-15T12:42:40.306Z,1.10
2023-05-15T12:46:58.772Z,1.27
2023-05-15T12:51:18.167Z,1.15
2023-05-15T12:55:40.255Z,1.30
2023-05-15T12:59:57.885Z,1.85
2023-05-15T13:04:16.919Z,1.50
2023-05-15T13:08:41.671Z,2.20
2023-05-15T13:13:00.008Z,1.92
2023-05-15T13:17:17.558Z,1.38
2023-05-15T13:21:35.448Z,1.30
2023-05-15T13:30:11.576Z,1.30
2023-05-15T13:34:29.036Z,1.33
2023-05-15T13:38:47.501Z,1.20
2023-05-15T13:47:24.640Z,1.02
2023-05-15T13:51:42.266Z,0.95
2023-05-15T13:55:59.863Z,1.10
2023-05-15T14:00:17.705Z,1.17
2023-05-15T14:04:35.485Z,1.00
2023-05-15T14:13:11.880Z,0.98
2023-05-15T14:17:29.503Z,1.20
2023-05-15T14:21:47.283Z,1.30
2023-05-15T14:26:04.873Z,1.25
2023-05-15T14:30:23.456Z,1.00
2023-05-15T14:34:41.722Z,1.40
2023-05-15T14:43:18.483Z,1.20
2023-05-15T14:47:36.014Z,1.52
2023-05-15T14:51:53.662Z,1.20
2023-05-15T14:56:11.170Z,1.48
2023-05-15T15:00:28.963Z,1.08
2023-05-15T15:09:04.688Z,1.92
2023-05-15T15:13:22.279Z,1.50
2023-05-15T15:17:39.953Z,2.10
2023-05-15T15:21:57.501Z,1.73
2023-05-15T15:26:16.024Z,1.88
2023-05-15T15:30:33.592Z,1.50
2023-05-15T15:34:52.347Z,2.45
2023-05-15T15:39:11.668Z,2.05
2023-05-15T15:43:29.364Z,1.60
2023-05-15T15:47:47.016Z,1.15
2023-05-15T15:52:08.622Z,1.30
2023-05-15T15:56:28.850Z,1.70
2023-05-15T16:00:49.724Z,2.95
2023-05-15T16:05:08.081Z,1.88
2023-05-15T16:09:25.840Z,1.60
2023-05-15T16:13:43.187Z,2.20
2023-05-15T16:18:01.541Z,1.42
2023-05-15T16:22:19.105Z,1.80
2023-05-15T16:30:56.554Z,1.25
2023-05-15T16:35:14.387Z,1.48
2023-05-15T16:39:38.879Z,1.60
2023-05-15T16:43:57.226Z,1.35
2023-05-15T16:48:14.826Z,1.38
2023-05-15T16:52:32.535Z,1.27
2023-05-15T16:56:50.094Z,1.17
2023-05-15T17:01:08.051Z,1.15
2023-05-15T17:05:25.896Z,1.10
2023-05-15T17:09:44.901Z,1.30
2023-05-15T17:14:02.549Z,1.25
2023-05-15T17:18:20.377Z,1.08
2023-05-15T17:22:37.976Z,1.20
2023-05-15T17:26:55.945Z,0.98
2023-05-15T17:31:13.495Z,2.80
2023-05-15T17:35:32.973Z,2.03
2023-05-15T17:39:51.499Z,1.45
2023-05-15T17:48:27.418Z,2.60
2023-05-15T17:57:02.817Z,1.30
2023-05-15T18:01:21.580Z,1.25
2023-05-15T18:05:39.322Z,1.77
2023-05-15T18:09:56.912Z,1.58
2023-05-15T18:14:14.625Z,2.40
2023-05-15T18:18:32.181Z,3.10
2023-05-15T18:22:51.041Z,5.68
2023-05-15T18:27:08.608Z,3.20
2023-05-15T18:31:26.670Z,1.80
2023-05-15T18:40:02.085Z,1.45
2023-05-15T18:44:20.933Z,1.40
2023-05-15T18:48:38.429Z,1.30
2023-05-15T18:52:56.029Z,1.48
2023-05-15T18:57:14.651Z,1.25
2023-05-15T19:01:32.551Z,2.67
2023-05-15T19:05:50.454Z,0.90
2023-05-15T19:10:09.208Z,1.40
2023-05-15T19:14:27.289Z,2.22
2023-05-15T19:23:03.798Z,4.68
2023-05-15T19:27:21.411Z,3.92
2023-05-15T19:31:39.968Z,1.85
2023-05-15T19:35:57.842Z,1.52
2023-05-15T19:40:15.832Z,1.40
2023-05-15T19:44:33.526Z,2.17
2023-05-15T19:48:53.699Z,1.45
2023-05-15T19:53:12.465Z,1.75
2023-05-15T19:57:30.067Z,1.08
2023-05-15T20:01:47.765Z,1.23
2023-05-15T20:06:05.399Z,1.33
2023-05-15T20:10:23.524Z,1.20
2023-05-15T20:14:42.146Z,1.58
2023-05-15T20:19:02.930Z,1.10
2023-05-15T20:23:21.591Z,1.63
2023-05-15T20:27:39.216Z,1.88
2023-05-15T20:31:57.587Z,3.03
2023-05-15T20:36:16.853Z,2.30
2023-05-15T20:40:34.754Z,2.15
2023-05-15T20:44:52.384Z,5.15
2023-05-15T20:49:10.055Z,2.67
2023-05-15T20:53:28.987Z,2.40
2023-05-15T20:57:48.612Z,2.00
2023-05-15T21:02:06.332Z,3.20
2023-05-15T21:06:24.142Z,1.88
2023-05-15T21:14:59.909Z,1.80
2023-05-15T21:19:17.628Z,3.08
2023-05-15T21:23:36.792Z,1.83
2023-05-15T21:27:54.977Z,1.77
2023-05-15T21:32:12.571Z,1.60
2023-05-15T21:36:30.232Z,1.85
2023-05-15T21:40:47.864Z,2.10
2023-05-15T21:45:06.981Z,2.28
2023-05-15T21:49:24.993Z,2.10
2023-05-15T21:53:42.748Z,2.25
2023-05-15T21:58:00.246Z,2.25
2023-05-15T22:02:17.895Z,2.00
2023-05-15T22:06:35.815Z,2.03
2023-05-15T22:10:53.845Z,2.42
2023-05-15T22:15:13.001Z,2.35
2023-05-15T22:19:33.464Z,2.08
2023-05-15T22:23:51.439Z,2.60
2023-05-15T22:28:09.212Z,3.05
2023-05-15T22:32:27.642Z,2.42
2023-05-15T22:36:48.100Z,2.30
2023-05-15T22:41:06.756Z,2.72
2023-05-15T22:45:25.068Z,2.88
2023-05-15T22:49:42.827Z,2.00
2023-05-15T22:54:02.899Z,2.00
2023-05-15T22:58:20.478Z,2.20
2023-05-15T23:02:38.693Z,2.75
2023-05-15T23:06:56.356Z,2.50
2023-05-15T23:11:13.962Z,1.95
2023-05-15T23:15:31.526Z,2.28
2023-05-15T23:19:49.696Z,2.45
2023-05-15T23:24:07.277Z,2.58
2023-05-15T23:28:25.097Z,3.10
2023-05-15T23:32:42.614Z,3.53
2023-05-15T23:37:00.256Z,3.80
2023-05-15T23:41:17.887Z,3.28
2023-05-15T23:45:35.626Z,2.78
2023-05-15T23:49:53.146Z,2.92
2023-05-15T23:54:11.974Z,3.03
2023-05-15T23:58:29.492Z,2.80
